createdAt,value
2023-03-26T00:00:26.525Z,3.70
2023-03-26T00:05:49.672Z,3.90
2023-03-26T00:10:52.580Z,3.40
2023-03-26T00:15:55.625Z,3.20
2023-03-26T00:21:00.249Z,3.40
2023-03-26T00:26:10.580Z,3.40
2023-03-26T00:31:15.275Z,3.40
2023-03-26T00:36:20.160Z,3.00
2023-03-26T00:41:26.376Z,3.50
2023-03-26T00:46:31.623Z,3.30
2023-03-26T00:51:35.121Z,3.50
2023-03-26T00:56:39.119Z,3.30
2023-03-26T01:01:42.385Z,4.00
2023-03-26T01:06:45.283Z,4.50
2023-03-26T01:11:49.819Z,3.90
2023-03-26T01:16:56.292Z,4.30
2023-03-26T01:22:00.861Z,4.10
2023-03-26T01:27:09.921Z,3.70
2023-03-26T01:32:30.985Z,3.60
2023-03-26T01:37:53.527Z,4.10
2023-03-26T01:43:22.177Z,4.00
2023-03-26T01:48:41.338Z,3.40
2023-03-26T01:53:48.049Z,3.70
2023-03-26T01:59:03.844Z,3.00
2023-03-26T02:04:19.182Z,3.60
2023-03-26T02:09:29.080Z,3.30
2023-03-26T02:14:32.081Z,3.40
2023-03-26T02:19:34.828Z,4.10
2023-03-26T02:24:38.948Z,3.80
2023-03-26T02:29:42.692Z,3.80
2023-03-26T02:34:45.890Z,3.70
2023-03-26T02:39:48.627Z,4.50
2023-03-26T02:44:51.391Z,4.10
2023-03-26T02:49:54.284Z,4.20
2023-03-26T02:54:57.626Z,4.80
2023-03-26T03:00:05.144Z,4.10
2023-03-26T03:05:08.540Z,5.00
2023-03-26T03:10:13.946Z,4.40
2023-03-26T03:15:16.777Z,5.40
2023-03-26T03:20:19.619Z,5.10
2023-03-26T03:25:23.472Z,4.60
2023-03-26T03:30:26.291Z,5.20
2023-03-26T03:35:30.340Z,4.60
2023-03-26T03:40:33.223Z,4.50
2023-03-26T03:45:36.335Z,5.30
2023-03-26T03:50:39.092Z,5.50
2023-03-26T03:55:54.409Z,5.70
2023-03-26T04:01:01.018Z,6.20
2023-03-26T04:06:07.056Z,6.10
2023-03-26T04:11:09.935Z,6.50
2023-03-26T04:16:12.883Z,6.30
2023-03-26T04:21:16.047Z,6.00
2023-03-26T04:26:20.040Z,5.60
2023-03-26T04:31:29.476Z,5.40
2023-03-26T04:36:34.454Z,5.60
2023-03-26T04:41:37.533Z,5.20
2023-03-26T04:46:43.863Z,5.30
2023-03-26T04:51:47.574Z,5.20
2023-03-26T04:56:52.359Z,4.40
2023-03-26T05:01:56.967Z,5.40
2023-03-26T05:07:00.900Z,5.30
2023-03-26T05:12:03.921Z,4.60
2023-03-26T05:17:06.697Z,5.30
2023-03-26T05:22:09.495Z,4.80
2023-03-26T05:27:17.077Z,5.40
2023-03-26T05:32:19.890Z,5.20
2023-03-26T05:37:24.690Z,5.00
2023-03-26T05:42:27.533Z,5.40
2023-03-26T05:47:30.311Z,4.40
2023-03-26T05:52:33.595Z,3.90
2023-03-26T05:57:36.741Z,3.90
2023-03-26T06:02:39.721Z,3.90
2023-03-26T06:07:42.669Z,3.60
2023-03-26T06:12:45.496Z,3.70
2023-03-26T06:17:48.520Z,3.70
2023-03-26T06:22:51.420Z,3.60
2023-03-26T06:27:54.174Z,3.40
2023-03-26T06:32:56.979Z,3.20
2023-03-26T06:38:00.100Z,2.70
2023-03-26T06:43:09.667Z,2.90
2023-03-26T06:48:13.590Z,3.00
2023-03-26T06:53:16.388Z,2.60
2023-03-26T06:58:19.390Z,3.10
2023-03-26T07:03:23.636Z,3.00
2023-03-26T07:08:26.760Z,3.20
2023-03-26T07:13:29.617Z,3.30
2023-03-26T07:18:32.789Z,2.70
2023-03-26T07:23:36.330Z,3.10
2023-03-26T07:29:03.699Z,2.80
2023-03-26T07:34:24.675Z,2.70
2023-03-26T07:39:44.890Z,3.30
2023-03-26T07:44:58.701Z,2.60
2023-03-26T07:50:02.560Z,2.60
2023-03-26T07:55:06.434Z,2.20
2023-03-26T08:00:32.312Z,2.00
2023-03-26T08:05:43.844Z,2.40
2023-03-26T08:11:15.881Z,2.30
2023-03-26T08:16:36.846Z,2.40
2023-03-26T08:21:55.732Z,2.30
2023-03-26T08:27:13.600Z,2.50
2023-03-26T08:32:19.266Z,2.40
2023-03-26T08:37:24.036Z,2.30
2023-03-26T08:42:40.827Z,2.70
2023-03-26T08:48:11.502Z,2.80
2023-03-26T08:53:32.320Z,2.70
2023-03-26T08:58:43.976Z,3.00
2023-03-26T09:04:11.880Z,2.80
2023-03-26T09:09:20.607Z,2.50
2023-03-26T09:14:42.368Z,2.30
2023-03-26T09:19:52.648Z,2.30
2023-03-26T09:25:14.439Z,2.20
2023-03-26T09:30:31.928Z,1.90
2023-03-26T09:36:19.857Z,2.00
2023-03-26T09:42:01.130Z,1.50
2023-03-26T09:47:25.464Z,1.60
2023-03-26T09:52:40.574Z,1.50
2023-03-26T09:57:53.995Z,1.10
2023-03-26T10:03:12.276Z,1.20
2023-03-26T10:08:30.232Z,1.40
2023-03-26T10:13:50.526Z,1.30
2023-03-26T10:19:12.331Z,1.40
2023-03-26T10:24:23.972Z,1.60
2023-03-26T10:29:48.549Z,1.30
2023-03-26T10:35:30.437Z,1.90
2023-03-26T10:41:06.846Z,1.80
2023-03-26T10:46:34.358Z,1.60
2023-03-26T10:51:58.562Z,2.20
2023-03-26T10:57:06.848Z,1.70
2023-03-26T11:02:38.572Z,1.50
2023-03-26T11:08:03.845Z,1.40
2023-03-26T11:13:41.801Z,1.00
2023-03-26T11:19:08.265Z,0.90
2023-03-26T11:24:49.104Z,1.00
2023-03-26T11:30:26.694Z,0.70
2023-03-26T11:35:45.919Z,1.10
2023-03-26T11:40:56.470Z,1.10
2023-03-26T11:46:03.468Z,1.20
2023-03-26T11:51:34.442Z,0.90
2023-03-26T11:57:04.984Z,1.10
2023-03-26T12:02:12.208Z,1.30
2023-03-26T12:07:33.108Z,1.20
2023-03-26T12:12:41.924Z,1.60
2023-03-26T12:17:47.407Z,0.90
2023-03-26T12:22:52.383Z,1.10
2023-03-26T12:28:02.957Z,1.30
2023-03-26T12:33:40.403Z,1.00
2023-03-26T12:38:43.338Z,1.40
2023-03-26T12:44:54.976Z,1.20
2023-03-26T12:49:45.016Z,1.10
2023-03-26T12:54:56.933Z,1.00
2023-03-26T13:00:37.645Z,1.00
2023-03-26T13:05:55.749Z,0.80
2023-03-26T13:11:20.991Z,0.70
2023-03-26T13:16:29.984Z,0.80
2023-03-26T13:22:01.116Z,1.00
2023-03-26T13:27:27.821Z,1.00
2023-03-26T13:33:03.398Z,1.30
2023-03-26T13:38:30.096Z,1.50
2023-03-26T13:43:54.921Z,1.20
2023-03-26T13:49:10.767Z,1.20
2023-03-26T13:54:37.221Z,1.50
2023-03-26T14:00:00.587Z,1.70
2023-03-26T14:05:30.859Z,0.90
2023-03-26T14:10:40.806Z,0.90
2023-03-26T14:15:48.069Z,1.10
2023-03-26T14:21:28.961Z,0.90
2023-03-26T14:26:37.971Z,1.00
2023-03-26T14:32:06.857Z,0.90
2023-03-26T14:37:39.677Z,1.10
2023-03-26T14:42:56.587Z,0.90
2023-03-26T14:48:28.962Z,0.90
2023-03-26T14:53:37.301Z,1.10
2023-03-26T14:59:14.628Z,0.90
2023-03-26T15:04:41.689Z,1.10
2023-03-26T15:10:22.755Z,0.70
2023-03-26T15:15:38.453Z,0.80
2023-03-26T15:21:10.307Z,0.90
2023-03-26T15:26:23.496Z,0.80
2023-03-26T15:31:43.289Z,0.70
2023-03-26T15:37:22.499Z,1.40
2023-03-26T15:42:56.630Z,1.60
2023-03-26T15:48:13.017Z,1.30
2023-03-26T15:53:23.609Z,1.70
2023-03-26T15:58:30.874Z,1.80
2023-03-26T16:03:54.874Z,1.90
2023-03-26T16:09:08.115Z,1.80
2023-03-26T16:14:24.688Z,2.20
2023-03-26T16:24:48.414Z,2.40
2023-03-26T16:30:00.683Z,4.20
2023-03-26T16:35:25.522Z,1.60
2023-03-26T16:40:37.777Z,1.60
2023-03-26T16:45:59.222Z,1.50
2023-03-26T16:51:39.283Z,1.50
2023-03-26T16:56:57.620Z,1.60
2023-03-26T17:02:09.575Z,2.00
2023-03-26T17:07:17.840Z,2.10
2023-03-26T17:12:37.022Z,3.30
2023-03-26T17:18:05.388Z,3.30
2023-03-26T17:23:36.006Z,3.10
2023-03-26T17:28:55.308Z,5.30
2023-03-26T17:34:28.585Z,3.40
2023-03-26T17:39:40.396Z,2.80
2023-03-26T17:44:49.065Z,2.80
2023-03-26T17:50:00.295Z,2.30
2023-03-26T17:55:03.826Z,2.60
2023-03-26T18:00:09.413Z,2.20
2023-03-26T18:05:15.424Z,3.50
2023-03-26T18:10:38.812Z,4.30
2023-03-26T18:16:15.523Z,4.90
2023-03-26T18:21:29.520Z,4.60
2023-03-26T18:26:46.096Z,3.80
2023-03-26T18:31:55.501Z,4.00
2023-03-26T18:37:19.634Z,5.10
2023-03-26T18:42:24.440Z,4.60
2023-03-26T18:47:30.479Z,4.60
2023-03-26T18:52:33.497Z,4.40
2023-03-26T18:57:36.814Z,4.10
2023-03-26T19:02:39.754Z,4.50
2023-03-26T19:07:46.638Z,3.40
2023-03-26T19:12:58.133Z,3.10
2023-03-26T19:18:07.561Z,2.60
2023-03-26T19:23:15.381Z,3.70
2023-03-26T19:28:33.616Z,3.10
2023-03-26T19:33:39.409Z,2.50
2023-03-26T19:38:54.053Z,2.40
2023-03-26T19:44:01.320Z,2.60
2023-03-26T19:49:04.365Z,2.50
2023-03-26T19:54:16.161Z,2.40
2023-03-26T19:59:19.395Z,2.40
2023-03-26T20:04:22.182Z,3.00
2023-03-26T20:09:25.544Z,3.30
2023-03-26T20:14:31.405Z,3.70
2023-03-26T20:19:35.443Z,2.80
2023-03-26T20:24:38.305Z,3.10
2023-03-26T20:29:42.705Z,3.50
2023-03-26T20:34:49.374Z,3.40
2023-03-26T20:39:52.179Z,4.30
2023-03-26T20:44:55.141Z,3.70
2023-03-26T20:49:57.917Z,3.40
2023-03-26T20:55:00.686Z,2.90
2023-03-26T21:00:09.236Z,2.50
2023-03-26T21:05:24.211Z,2.20
2023-03-26T21:10:30.785Z,2.90
2023-03-26T21:15:34.336Z,3.00
2023-03-26T21:20:37.967Z,3.30
2023-03-26T21:25:55.840Z,2.50
2023-03-26T21:31:01.377Z,2.30
2023-03-26T21:36:04.617Z,2.20
2023-03-26T21:41:07.850Z,2.40
2023-03-26T21:46:11.825Z,2.60
2023-03-26T21:51:14.999Z,2.20
2023-03-26T21:56:49.948Z,2.70
2023-03-26T22:02:04.621Z,2.70
2023-03-26T22:07:14.684Z,2.80
2023-03-26T22:12:18.241Z,2.90
2023-03-26T22:17:22.677Z,2.50
2023-03-26T22:22:26.317Z,2.30
2023-03-26T22:27:29.149Z,2.60
2023-03-26T22:32:34.366Z,5.50
2023-03-26T22:37:37.846Z,4.40
2023-03-26T22:42:41.573Z,4.60
2023-03-26T22:47:45.067Z,4.30
2023-03-26T22:52:50.377Z,3.60
2023-03-26T22:57:53.290Z,3.00
2023-03-26T23:03:00.411Z,3.40
2023-03-26T23:08:04.310Z,3.80
2023-03-26T23:13:07.570Z,3.30
2023-03-26T23:18:12.052Z,3.00
2023-03-26T23:23:14.819Z,3.00
2023-03-26T23:28:18.336Z,2.40
2023-03-26T23:33:23.002Z,3.10
2023-03-26T23:38:29.264Z,3.10
2023-03-26T23:43:55.495Z,3.00
2023-03-26T23:49:05.144Z,3.20
2023-03-26T23:54:08.868Z,3.00
2023-03-26T23:59:11.772Z,3.30
